sensor_id;sensor_type;location;lat;lon;timestamp;temperature;humidity
10468;DHT22;5281;48.878;9.394;2024-03-22T00:02:00;8.90;99.90
10468;DHT22;5281;48.878;9.394;2024-03-22T00:04:28;8.90;99.90
10468;DHT22;5281;48.878;9.394;2024-03-22T00:06:54;8.90;99.90
10468;DHT22;5281;48.878;9.394;2024-03-22T00:09:21;8.90;99.90
10468;DHT22;5281;48.878;9.394;2024-03-22T00:11:47;8.90;99.90
10468;DHT22;5281;48.878;9.394;2024-03-22T00:14:13;8.80;99.90
10468;DHT22;5281;48.878;9.394;2024-03-22T00:16:39;8.80;99.90
10468;DHT22;5281;48.878;9.394;2024-03-22T00:19:06;8.70;99.90
10468;DHT22;5281;48.878;9.394;2024-03-22T00:21:33;8.70;99.90
10468;DHT22;5281;48.878;9.394;2024-03-22T00:23:59;8.70;99.90
10468;DHT22;5281;48.878;9.394;2024-03-22T00:26:26;8.70;99.90
10468;DHT22;5281;48.878;9.394;2024-03-22T00:28:53;8.60;99.90
10468;DHT22;5281;48.878;9.394;2024-03-22T00:31:19;8.50;99.90
10468;DHT22;5281;48.878;9.394;2024-03-22T00:33:45;8.40;99.90
10468;DHT22;5281;48.878;9.394;2024-03-22T00:36:11;8.30;99.90
10468;DHT22;5281;48.878;9.394;2024-03-22T00:38:39;8.30;99.90
10468;DHT22;5281;48.878;9.394;2024-03-22T00:41:05;8.30;99.90
10468;DHT22;5281;48.878;9.394;2024-03-22T00:43:32;8.30;99.90
10468;DHT22;5281;48.878;9.394;2024-03-22T00:45:57;8.30;99.90
10468;DHT22;5281;48.878;9.394;2024-03-22T00:48:25;8.30;99.90
10468;DHT22;5281;48.878;9.394;2024-03-22T00:50:51;8.20;99.90
10468;DHT22;5281;48.878;9.394;2024-03-22T00:53:18;8.30;99.90
10468;DHT22;5281;48.878;9.394;2024-03-22T00:55:45;8.20;99.90
10468;DHT22;5281;48.878;9.394;2024-03-22T00:58:16;8.10;99.90
10468;DHT22;5281;48.878;9.394;2024-03-22T01:00:42;8.10;99.90
10468;DHT22;5281;48.878;9.394;2024-03-22T01:03:10;8.00;99.90
10468;DHT22;5281;48.878;9.394;2024-03-22T01:05:35;8.00;99.90
10468;DHT22;5281;48.878;9.394;2024-03-22T01:08:02;8.00;99.90
10468;DHT22;5281;48.878;9.394;2024-03-22T01:10:28;8.00;99.90
10468;DHT22;5281;48.878;9.394;2024-03-22T01:12:56;8.10;99.90
10468;DHT22;5281;48.878;9.394;2024-03-22T01:15:22;8.10;99.90
10468;DHT22;5281;48.878;9.394;2024-03-22T01:17:48;8.10;99.90
10468;DHT22;5281;48.878;9.394;2024-03-22T01:20:14;8.10;99.90
10468;DHT22;5281;48.878;9.394;2024-03-22T01:22:41;8.10;99.90
10468;DHT22;5281;48.878;9.394;2024-03-22T01:25:07;8.10;99.90
10468;DHT22;5281;48.878;9.394;2024-03-22T01:27:35;8.00;99.90
10468;DHT22;5281;48.878;9.394;2024-03-22T01:30:03;8.00;99.90
10468;DHT22;5281;48.878;9.394;2024-03-22T01:32:30;7.80;99.90
10468;DHT22;5281;48.878;9.394;2024-03-22T01:34:56;7.70;99.90
10468;DHT22;5281;48.878;9.394;2024-03-22T01:37:23;7.70;99.90
10468;DHT22;5281;48.878;9.394;2024-03-22T01:39:49;7.60;99.90
10468;DHT22;5281;48.878;9.394;2024-03-22T01:42:15;7.60;99.90
10468;DHT22;5281;48.878;9.394;2024-03-22T01:44:41;7.60;99.90
10468;DHT22;5281;48.878;9.394;2024-03-22T01:47:09;7.60;99.90
10468;DHT22;5281;48.878;9.394;2024-03-22T01:49:35;7.60;99.90
10468;DHT22;5281;48.878;9.394;2024-03-22T01:52:02;7.60;99.90
10468;DHT22;5281;48.878;9.394;2024-03-22T01:54:28;7.60;99.90
10468;DHT22;5281;48.878;9.394;2024-03-22T01:56:56;7.50;99.90
10468;DHT22;5281;48.878;9.394;2024-03-22T01:59:22;7.40;99.90
10468;DHT22;5281;48.878;9.394;2024-03-22T02:01:48;7.40;99.90
10468;DHT22;5281;48.878;9.394;2024-03-22T02:04:15;7.30;99.90
10468;DHT22;5281;48.878;9.394;2024-03-22T02:06:42;7.30;99.90
10468;DHT22;5281;48.878;9.394;2024-03-22T02:09:08;7.30;99.90
10468;DHT22;5281;48.878;9.394;2024-03-22T02:11:36;7.30;99.90
10468;DHT22;5281;48.878;9.394;2024-03-22T02:14:03;7.20;99.90
10468;DHT22;5281;48.878;9.394;2024-03-22T02:16:29;7.30;99.90
10468;DHT22;5281;48.878;9.394;2024-03-22T02:18:55;7.30;99.90
10468;DHT22;5281;48.878;9.394;2024-03-22T02:21:23;7.30;99.90
10468;DHT22;5281;48.878;9.394;2024-03-22T02:23:50;7.30;99.90
10468;DHT22;5281;48.878;9.394;2024-03-22T02:26:17;7.20;99.90
10468;DHT22;5281;48.878;9.394;2024-03-22T02:28:42;7.20;99.90
10468;DHT22;5281;48.878;9.394;2024-03-22T02:31:09;7.30;99.90
10468;DHT22;5281;48.878;9.394;2024-03-22T02:33:35;7.30;99.90
10468;DHT22;5281;48.878;9.394;2024-03-22T02:36:01;7.30;99.90
10468;DHT22;5281;48.878;9.394;2024-03-22T02:38:27;7.20;99.90
10468;DHT22;5281;48.878;9.394;2024-03-22T02:40:58;7.20;99.90
10468;DHT22;5281;48.878;9.394;2024-03-22T02:43:24;7.20;99.90
10468;DHT22;5281;48.878;9.394;2024-03-22T02:45:51;7.20;99.90
10468;DHT22;5281;48.878;9.394;2024-03-22T02:48:16;7.20;99.90
10468;DHT22;5281;48.878;9.394;2024-03-22T02:50:43;7.20;99.90
10468;DHT22;5281;48.878;9.394;2024-03-22T02:53:09;7.10;99.90
10468;DHT22;5281;48.878;9.394;2024-03-22T02:55:36;7.20;99.90
10468;DHT22;5281;48.878;9.394;2024-03-22T02:58:04;7.20;99.90
10468;DHT22;5281;48.878;9.394;2024-03-22T03:00:31;7.20;99.90
10468;DHT22;5281;48.878;9.394;2024-03-22T03:02:56;7.20;99.90
10468;DHT22;5281;48.878;9.394;2024-03-22T03:05:23;7.00;99.90
10468;DHT22;5281;48.878;9.394;2024-03-22T03:07:49;7.00;99.90
10468;DHT22;5281;48.878;9.394;2024-03-22T03:10:16;7.00;99.90
10468;DHT22;5281;48.878;9.394;2024-03-22T03:12:42;7.00;99.90
10468;DHT22;5281;48.878;9.394;2024-03-22T03:15:10;7.00;99.90
10468;DHT22;5281;48.878;9.394;2024-03-22T03:17:35;7.00;99.90
10468;DHT22;5281;48.878;9.394;2024-03-22T03:20:03;7.00;99.90
10468;DHT22;5281;48.878;9.394;2024-03-22T03:22:33;7.00;99.90
10468;DHT22;5281;48.878;9.394;2024-03-22T03:24:59;6.90;99.90
10468;DHT22;5281;48.878;9.394;2024-03-22T03:27:25;6.70;99.90
10468;DHT22;5281;48.878;9.394;2024-03-22T03:29:52;6.70;99.90
10468;DHT22;5281;48.878;9.394;2024-03-22T03:32:19;6.70;99.90
10468;DHT22;5281;48.878;9.394;2024-03-22T03:34:45;6.70;99.90
10468;DHT22;5281;48.878;9.394;2024-03-22T03:37:11;6.80;99.90
10468;DHT22;5281;48.878;9.394;2024-03-22T03:39:38;6.80;99.90
10468;DHT22;5281;48.878;9.394;2024-03-22T03:42:04;6.80;99.90
10468;DHT22;5281;48.878;9.394;2024-03-22T03:44:30;6.80;99.90
10468;DHT22;5281;48.878;9.394;2024-03-22T03:46:56;6.80;99.90
10468;DHT22;5281;48.878;9.394;2024-03-22T03:49:24;6.90;99.90
10468;DHT22;5281;48.878;9.394;2024-03-22T03:51:50;6.80;99.90
10468;DHT22;5281;48.878;9.394;2024-03-22T03:54:16;6.90;99.90
10468;DHT22;5281;48.878;9.394;2024-03-22T03:56:42;6.80;99.90
10468;DHT22;5281;48.878;9.394;2024-03-22T03:59:09;6.80;99.90
10468;DHT22;5281;48.878;9.394;2024-03-22T04:01:34;6.80;99.90
10468;DHT22;5281;48.878;9.394;2024-03-22T04:04:02;6.80;99.90
10468;DHT22;5281;48.878;9.394;2024-03-22T04:06:29;6.80;99.90
10468;DHT22;5281;48.878;9.394;2024-03-22T04:08:56;6.70;99.90
10468;DHT22;5281;48.878;9.394;2024-03-22T04:11:22;6.80;99.90
10468;DHT22;5281;48.878;9.394;2024-03-22T04:13:49;6.80;99.90
10468;DHT22;5281;48.878;9.394;2024-03-22T04:16:15;6.80;99.90
10468;DHT22;5281;48.878;9.394;2024-03-22T04:18:42;6.80;99.90
10468;DHT22;5281;48.878;9.394;2024-03-22T04:21:07;6.80;99.90
10468;DHT22;5281;48.878;9.394;2024-03-22T04:23:35;6.90;99.90
10468;DHT22;5281;48.878;9.394;2024-03-22T04:26:02;6.80;99.90
10468;DHT22;5281;48.878;9.394;2024-03-22T04:28:29;6.80;99.90
10468;DHT22;5281;48.878;9.394;2024-03-22T04:30:56;6.90;99.90
10468;DHT22;5281;48.878;9.394;2024-03-22T04:33:23;6.90;99.90
10468;DHT22;5281;48.878;9.394;2024-03-22T04:35:49;7.00;99.90
10468;DHT22;5281;48.878;9.394;2024-03-22T04:38:15;7.00;99.90
10468;DHT22;5281;48.878;9.394;2024-03-22T04:40:43;7.10;99.90
10468;DHT22;5281;48.878;9.394;2024-03-22T04:43:10;7.20;99.90
10468;DHT22;5281;48.878;9.394;2024-03-22T04:45:36;7.30;99.90
10468;DHT22;5281;48.878;9.394;2024-03-22T04:48:04;7.30;99.90
10468;DHT22;5281;48.878;9.394;2024-03-22T04:50:30;7.40;99.90
10468;DHT22;5281;48.878;9.394;2024-03-22T04:52:56;7.50;99.90
10468;DHT22;5281;48.878;9.394;2024-03-22T04:55:22;7.50;99.90
10468;DHT22;5281;48.878;9.394;2024-03-22T04:57:51;7.60;99.90
10468;DHT22;5281;48.878;9.394;2024-03-22T05:00:18;7.60;99.90
10468;DHT22;5281;48.878;9.394;2024-03-22T05:02:44;7.60;99.90
10468;DHT22;5281;48.878;9.394;2024-03-22T05:05:11;7.60;99.90
10468;DHT22;5281;48.878;9.394;2024-03-22T05:07:37;7.60;99.90
10468;DHT22;5281;48.878;9.394;2024-03-22T05:10:04;7.70;99.90
10468;DHT22;5281;48.878;9.394;2024-03-22T05:12:31;7.70;99.90
10468;DHT22;5281;48.878;9.394;2024-03-22T05:14:58;7.70;99.90
10468;DHT22;5281;48.878;9.394;2024-03-22T05:17:24;7.80;99.90
10468;DHT22;5281;48.878;9.394;2024-03-22T05:19:50;7.80;99.90
10468;DHT22;5281;48.878;9.394;2024-03-22T05:22:18;7.80;99.90
10468;DHT22;5281;48.878;9.394;2024-03-22T05:24:45;7.90;99.90
10468;DHT22;5281;48.878;9.394;2024-03-22T05:27:12;7.90;99.90
10468;DHT22;5281;48.878;9.394;2024-03-22T05:29:38;8.00;99.90
10468;DHT22;5281;48.878;9.394;2024-03-22T05:32:06;8.10;99.90
10468;DHT22;5281;48.878;9.394;2024-03-22T05:34:32;8.20;99.90
10468;DHT22;5281;48.878;9.394;2024-03-22T05:36:59;8.40;99.90
10468;DHT22;5281;48.878;9.394;2024-03-22T05:39:24;8.50;99.90
10468;DHT22;5281;48.878;9.394;2024-03-22T05:41:51;8.60;99.90
10468;DHT22;5281;48.878;9.394;2024-03-22T05:44:17;8.60;99.90
10468;DHT22;5281;48.878;9.394;2024-03-22T05:46:44;8.70;99.90
10468;DHT22;5281;48.878;9.394;2024-03-22T05:49:11;8.80;99.90
10468;DHT22;5281;48.878;9.394;2024-03-22T05:51:38;8.80;99.90
10468;DHT22;5281;48.878;9.394;2024-03-22T05:54:04;8.80;99.90
10468;DHT22;5281;48.878;9.394;2024-03-22T05:56:32;8.80;99.90
10468;DHT22;5281;48.878;9.394;2024-03-22T05:58:57;8.70;99.90
10468;DHT22;5281;48.878;9.394;2024-03-22T06:01:26;8.70;99.90
10468;DHT22;5281;48.878;9.394;2024-03-22T06:03:51;8.70;99.90
10468;DHT22;5281;48.878;9.394;2024-03-22T06:06:19;8.80;99.90
10468;DHT22;5281;48.878;9.394;2024-03-22T06:08:47;8.90;99.90
10468;DHT22;5281;48.878;9.394;2024-03-22T06:11:17;9.00;99.90
10468;DHT22;5281;48.878;9.394;2024-03-22T06:13:43;9.10;99.90
10468;DHT22;5281;48.878;9.394;2024-03-22T06:16:10;9.20;99.90
10468;DHT22;5281;48.878;9.394;2024-03-22T06:18:36;9.20;99.90
10468;DHT22;5281;48.878;9.394;2024-03-22T06:21:03;9.30;99.90
10468;DHT22;5281;48.878;9.394;2024-03-22T06:23:31;9.40;99.90
10468;DHT22;5281;48.878;9.394;2024-03-22T06:25:58;9.50;99.90
10468;DHT22;5281;48.878;9.394;2024-03-22T06:28:25;9.80;99.90
10468;DHT22;5281;48.878;9.394;2024-03-22T06:30:52;9.90;99.90
10468;DHT22;5281;48.878;9.394;2024-03-22T06:33:17;10.20;99.90
10468;DHT22;5281;48.878;9.394;2024-03-22T06:35:44;10.30;99.90
10468;DHT22;5281;48.878;9.394;2024-03-22T06:38:10;10.40;99.90
10468;DHT22;5281;48.878;9.394;2024-03-22T06:40:38;10.40;99.90
10468;DHT22;5281;48.878;9.394;2024-03-22T06:43:04;10.40;99.90
10468;DHT22;5281;48.878;9.394;2024-03-22T06:45:31;10.30;99.90
10468;DHT22;5281;48.878;9.394;2024-03-22T06:47:56;10.40;99.90
10468;DHT22;5281;48.878;9.394;2024-03-22T06:50:23;10.70;99.90
10468;DHT22;5281;48.878;9.394;2024-03-22T06:52:49;11.50;99.90
10468;DHT22;5281;48.878;9.394;2024-03-22T06:55:16;12.10;99.90
10468;DHT22;5281;48.878;9.394;2024-03-22T06:57:44;12.60;99.90
10468;DHT22;5281;48.878;9.394;2024-03-22T07:00:12;13.00;99.90
10468;DHT22;5281;48.878;9.394;2024-03-22T07:02:38;13.60;99.90
10468;DHT22;5281;48.878;9.394;2024-03-22T07:05:06;14.40;99.90
10468;DHT22;5281;48.878;9.394;2024-03-22T07:07:32;15.30;99.90
10468;DHT22;5281;48.878;9.394;2024-03-22T07:09:58;16.20;99.90
10468;DHT22;5281;48.878;9.394;2024-03-22T07:12:24;16.90;99.90
10468;DHT22;5281;48.878;9.394;2024-03-22T07:14:52;17.50;99.90
10468;DHT22;5281;48.878;9.394;2024-03-22T07:17:18;18.40;99.90
10468;DHT22;5281;48.878;9.394;2024-03-22T07:19:49;19.30;99.90
10468;DHT22;5281;48.878;9.394;2024-03-22T07:22:15;20.10;99.90
10468;DHT22;5281;48.878;9.394;2024-03-22T07:24:41;20.90;99.90
10468;DHT22;5281;48.878;9.394;2024-03-22T07:27:07;21.60;99.90
10468;DHT22;5281;48.878;9.394;2024-03-22T07:29:33;22.10;99.90
10468;DHT22;5281;48.878;9.394;2024-03-22T07:32:01;22.80;99.90
10468;DHT22;5281;48.878;9.394;2024-03-22T07:34:28;23.50;99.90
10468;DHT22;5281;48.878;9.394;2024-03-22T07:36:54;23.90;99.90
10468;DHT22;5281;48.878;9.394;2024-03-22T07:39:21;24.30;98.90
10468;DHT22;5281;48.878;9.394;2024-03-22T07:41:46;24.60;98.30
10468;DHT22;5281;48.878;9.394;2024-03-22T07:44:13;24.90;97.30
10468;DHT22;5281;48.878;9.394;2024-03-22T07:46:39;25.20;96.40
10468;DHT22;5281;48.878;9.394;2024-03-22T07:49:07;25.40;95.80
10468;DHT22;5281;48.878;9.394;2024-03-22T07:51:33;25.70;95.20
10468;DHT22;5281;48.878;9.394;2024-03-22T07:53:59;25.90;94.30
10468;DHT22;5281;48.878;9.394;2024-03-22T07:56:25;26.00;93.70
10468;DHT22;5281;48.878;9.394;2024-03-22T07:58:52;25.80;93.50
10468;DHT22;5281;48.878;9.394;2024-03-22T08:01:17;25.40;94.00
10468;DHT22;5281;48.878;9.394;2024-03-22T08:03:44;24.50;94.40
10468;DHT22;5281;48.878;9.394;2024-03-22T08:06:11;23.40;95.30
10468;DHT22;5281;48.878;9.394;2024-03-22T08:08:38;22.40;96.40
10468;DHT22;5281;48.878;9.394;2024-03-22T08:11:04;21.30;98.20
10468;DHT22;5281;48.878;9.394;2024-03-22T08:13:30;20.30;99.80
10468;DHT22;5281;48.878;9.394;2024-03-22T08:15:56;19.40;99.90
10468;DHT22;5281;48.878;9.394;2024-03-22T08:18:23;18.70;99.90
10468;DHT22;5281;48.878;9.394;2024-03-22T08:20:49;18.30;99.90
10468;DHT22;5281;48.878;9.394;2024-03-22T08:23:17;18.00;99.90
10468;DHT22;5281;48.878;9.394;2024-03-22T08:25:45;17.90;99.90
10468;DHT22;5281;48.878;9.394;2024-03-22T08:28:12;17.70;99.90
10468;DHT22;5281;48.878;9.394;2024-03-22T08:30:39;17.40;99.90
10468;DHT22;5281;48.878;9.394;2024-03-22T08:33:05;17.50;99.90
10468;DHT22;5281;48.878;9.394;2024-03-22T08:35:31;17.50;99.90
10468;DHT22;5281;48.878;9.394;2024-03-22T08:37:58;17.50;99.90
10468;DHT22;5281;48.878;9.394;2024-03-22T08:40:25;17.80;99.90
10468;DHT22;5281;48.878;9.394;2024-03-22T08:42:52;17.90;99.90
10468;DHT22;5281;48.878;9.394;2024-03-22T08:45:18;18.10;99.90
10468;DHT22;5281;48.878;9.394;2024-03-22T08:47:44;18.10;99.90
10468;DHT22;5281;48.878;9.394;2024-03-22T08:50:11;18.20;99.90
10468;DHT22;5281;48.878;9.394;2024-03-22T08:52:37;18.30;99.90
10468;DHT22;5281;48.878;9.394;2024-03-22T08:55:04;18.30;99.90
10468;DHT22;5281;48.878;9.394;2024-03-22T08:57:33;18.20;99.90
10468;DHT22;5281;48.878;9.394;2024-03-22T08:59:59;18.20;99.90
10468;DHT22;5281;48.878;9.394;2024-03-22T09:02:25;18.60;99.90
10468;DHT22;5281;48.878;9.394;2024-03-22T09:04:52;18.60;99.90
10468;DHT22;5281;48.878;9.394;2024-03-22T09:07:19;18.80;99.90
10468;DHT22;5281;48.878;9.394;2024-03-22T09:09:45;19.10;99.90
10468;DHT22;5281;48.878;9.394;2024-03-22T09:12:12;19.00;99.90
10468;DHT22;5281;48.878;9.394;2024-03-22T09:14:39;18.90;99.90
10468;DHT22;5281;48.878;9.394;2024-03-22T09:17:06;18.80;99.90
10468;DHT22;5281;48.878;9.394;2024-03-22T09:19:32;18.70;99.90
10468;DHT22;5281;48.878;9.394;2024-03-22T09:21:59;18.70;99.90
10468;DHT22;5281;48.878;9.394;2024-03-22T09:24:24;19.00;99.90
10468;DHT22;5281;48.878;9.394;2024-03-22T09:26:51;19.40;99.90
10468;DHT22;5281;48.878;9.394;2024-03-22T09:29:18;19.50;99.90
10468;DHT22;5281;48.878;9.394;2024-03-22T09:31:46;19.70;99.90
10468;DHT22;5281;48.878;9.394;2024-03-22T09:34:12;19.90;99.90
10468;DHT22;5281;48.878;9.394;2024-03-22T09:36:41;20.20;99.90
10468;DHT22;5281;48.878;9.394;2024-03-22T09:39:07;20.30;99.90
10468;DHT22;5281;48.878;9.394;2024-03-22T09:41:42;20.40;99.90
10468;DHT22;5281;48.878;9.394;2024-03-22T09:44:12;20.50;99.90
10468;DHT22;5281;48.878;9.394;2024-03-22T09:46:40;20.30;99.90
10468;DHT22;5281;48.878;9.394;2024-03-22T09:49:09;20.00;99.90
10468;DHT22;5281;48.878;9.394;2024-03-22T09:51:37;20.10;99.90
10468;DHT22;5281;48.878;9.394;2024-03-22T09:54:03;20.40;99.90
10468;DHT22;5281;48.878;9.394;2024-03-22T09:56:30;20.80;99.90
10468;DHT22;5281;48.878;9.394;2024-03-22T09:58:56;21.10;99.90
10468;DHT22;5281;48.878;9.394;2024-03-22T10:01:24;21.40;99.90
10468;DHT22;5281;48.878;9.394;2024-03-22T10:03:51;21.70;99.90
10468;DHT22;5281;48.878;9.394;2024-03-22T10:06:19;21.90;99.90
10468;DHT22;5281;48.878;9.394;2024-03-22T10:08:45;22.10;99.90
10468;DHT22;5281;48.878;9.394;2024-03-22T10:11:11;22.30;99.70
10468;DHT22;5281;48.878;9.394;2024-03-22T10:13:37;22.40;98.50
10468;DHT22;5281;48.878;9.394;2024-03-22T10:16:05;22.50;98.20
10468;DHT22;5281;48.878;9.394;2024-03-22T10:18:32;22.70;98.30
10468;DHT22;5281;48.878;9.394;2024-03-22T10:21:00;22.70;97.70
10468;DHT22;5281;48.878;9.394;2024-03-22T10:23:28;22.30;98.00
10468;DHT22;5281;48.878;9.394;2024-03-22T10:25:56;21.60;98.80
10468;DHT22;5281;48.878;9.394;2024-03-22T10:28:22;21.10;99.50
10468;DHT22;5281;48.878;9.394;2024-03-22T10:30:49;21.20;99.30
10468;DHT22;5281;48.878;9.394;2024-03-22T10:33:16;21.50;98.80
10468;DHT22;5281;48.878;9.394;2024-03-22T10:35:44;21.60;97.80
10468;DHT22;5281;48.878;9.394;2024-03-22T10:38:12;21.70;97.40
10468;DHT22;5281;48.878;9.394;2024-03-22T10:40:44;22.00;97.00
10468;DHT22;5281;48.878;9.394;2024-03-22T10:43:10;22.20;96.10
10468;DHT22;5281;48.878;9.394;2024-03-22T10:45:38;22.20;96.30
10468;DHT22;5281;48.878;9.394;2024-03-22T10:48:09;22.00;96.60
10468;DHT22;5281;48.878;9.394;2024-03-22T10:50:39;22.10;96.70
10468;DHT22;5281;48.878;9.394;2024-03-22T10:53:07;22.20;96.50
10468;DHT22;5281;48.878;9.394;2024-03-22T10:55:37;22.20;96.30
10468;DHT22;5281;48.878;9.394;2024-03-22T10:58:05;22.00;96.60
10468;DHT22;5281;48.878;9.394;2024-03-22T11:00:33;21.90;96.70
10468;DHT22;5281;48.878;9.394;2024-03-22T11:03:00;21.80;96.60
10468;DHT22;5281;48.878;9.394;2024-03-22T11:05:28;21.70;96.90
10468;DHT22;5281;48.878;9.394;2024-03-22T11:08:00;21.70;96.80
10468;DHT22;5281;48.878;9.394;2024-03-22T11:10:31;22.00;95.20
10468;DHT22;5281;48.878;9.394;2024-03-22T11:13:01;22.30;95.20
10468;DHT22;5281;48.878;9.394;2024-03-22T11:15:29;22.50;95.50
10468;DHT22;5281;48.878;9.394;2024-03-22T11:17:55;22.80;94.90
10468;DHT22;5281;48.878;9.394;2024-03-22T11:20:22;23.10;93.50
10468;DHT22;5281;48.878;9.394;2024-03-22T11:22:48;23.40;93.30
10468;DHT22;5281;48.878;9.394;2024-03-22T11:25:15;23.70;93.20
10468;DHT22;5281;48.878;9.394;2024-03-22T11:27:41;24.00;92.60
10468;DHT22;5281;48.878;9.394;2024-03-22T11:30:08;24.20;92.20
10468;DHT22;5281;48.878;9.394;2024-03-22T11:32:35;24.40;91.80
10468;DHT22;5281;48.878;9.394;2024-03-22T11:35:09;24.40;92.70
10468;DHT22;5281;48.878;9.394;2024-03-22T11:37:35;24.00;92.80
10468;DHT22;5281;48.878;9.394;2024-03-22T11:40:01;23.90;93.30
10468;DHT22;5281;48.878;9.394;2024-03-22T11:42:30;24.00;92.70
10468;DHT22;5281;48.878;9.394;2024-03-22T11:44:58;24.00;92.40
10468;DHT22;5281;48.878;9.394;2024-03-22T11:47:24;23.90;92.40
10468;DHT22;5281;48.878;9.394;2024-03-22T11:49:52;23.90;92.20
10468;DHT22;5281;48.878;9.394;2024-03-22T11:52:24;23.90;92.20
10468;DHT22;5281;48.878;9.394;2024-03-22T11:54:51;23.70;92.60
10468;DHT22;5281;48.878;9.394;2024-03-22T11:57:18;23.30;92.40
10468;DHT22;5281;48.878;9.394;2024-03-22T11:59:44;22.80;93.20
10468;DHT22;5281;48.878;9.394;2024-03-22T12:02:10;22.60;93.10
10468;DHT22;5281;48.878;9.394;2024-03-22T12:04:41;22.70;92.60
10468;DHT22;5281;48.878;9.394;2024-03-22T12:07:10;22.50;93.10
10468;DHT22;5281;48.878;9.394;2024-03-22T12:09:37;22.60;93.00
10468;DHT22;5281;48.878;9.394;2024-03-22T12:12:04;22.50;93.30
10468;DHT22;5281;48.878;9.394;2024-03-22T12:14:30;22.70;92.80
10468;DHT22;5281;48.878;9.394;2024-03-22T12:16:56;22.70;92.20
10468;DHT22;5281;48.878;9.394;2024-03-22T12:19:24;22.60;92.20
10468;DHT22;5281;48.878;9.394;2024-03-22T12:21:50;22.60;92.00
10468;DHT22;5281;48.878;9.394;2024-03-22T12:24:18;22.60;92.50
10468;DHT22;5281;48.878;9.394;2024-03-22T12:26:43;22.80;92.10
10468;DHT22;5281;48.878;9.394;2024-03-22T12:29:12;23.00;91.50
10468;DHT22;5281;48.878;9.394;2024-03-22T12:31:38;23.10;92.00
10468;DHT22;5281;48.878;9.394;2024-03-22T12:34:05;23.30;91.40
10468;DHT22;5281;48.878;9.394;2024-03-22T12:36:30;23.40;91.10
10468;DHT22;5281;48.878;9.394;2024-03-22T12:38:57;23.40;91.00
10468;DHT22;5281;48.878;9.394;2024-03-22T12:41:24;23.30;91.50
10468;DHT22;5281;48.878;9.394;2024-03-22T12:43:51;23.20;91.20
10468;DHT22;5281;48.878;9.394;2024-03-22T12:46:17;23.20;91.50
10468;DHT22;5281;48.878;9.394;2024-03-22T12:48:43;23.40;91.00
10468;DHT22;5281;48.878;9.394;2024-03-22T12:51:09;23.40;91.10
10468;DHT22;5281;48.878;9.394;2024-03-22T12:53:36;23.80;90.90
10468;DHT22;5281;48.878;9.394;2024-03-22T12:56:03;24.20;90.30
10468;DHT22;5281;48.878;9.394;2024-03-22T12:58:31;24.50;89.10
10468;DHT22;5281;48.878;9.394;2024-03-22T13:00:57;24.50;89.00
10468;DHT22;5281;48.878;9.394;2024-03-22T13:03:24;24.70;88.20
10468;DHT22;5281;48.878;9.394;2024-03-22T13:05:50;24.80;87.80
10468;DHT22;5281;48.878;9.394;2024-03-22T13:08:17;24.80;88.30
10468;DHT22;5281;48.878;9.394;2024-03-22T13:10:44;24.80;87.60
10468;DHT22;5281;48.878;9.394;2024-03-22T13:13:11;24.90;86.80
10468;DHT22;5281;48.878;9.394;2024-03-22T13:15:38;25.10;86.00
10468;DHT22;5281;48.878;9.394;2024-03-22T13:18:05;25.20;85.60
10468;DHT22;5281;48.878;9.394;2024-03-22T13:20:31;25.30;85.90
10468;DHT22;5281;48.878;9.394;2024-03-22T13:22:58;25.40;84.90
10468;DHT22;5281;48.878;9.394;2024-03-22T13:25:24;25.50;84.50
10468;DHT22;5281;48.878;9.394;2024-03-22T13:27:51;25.60;83.30
10468;DHT22;5281;48.878;9.394;2024-03-22T13:30:17;25.70;82.60
10468;DHT22;5281;48.878;9.394;2024-03-22T13:32:45;25.80;82.00
10468;DHT22;5281;48.878;9.394;2024-03-22T13:35:11;25.70;81.80
10468;DHT22;5281;48.878;9.394;2024-03-22T13:37:37;25.60;83.60
10468;DHT22;5281;48.878;9.394;2024-03-22T13:40:04;25.50;85.30
10468;DHT22;5281;48.878;9.394;2024-03-22T13:42:30;25.10;84.70
10468;DHT22;5281;48.878;9.394;2024-03-22T13:44:56;24.50;86.90
10468;DHT22;5281;48.878;9.394;2024-03-22T13:47:23;24.30;87.10
10468;DHT22;5281;48.878;9.394;2024-03-22T13:49:51;24.10;87.40
10468;DHT22;5281;48.878;9.394;2024-03-22T13:52:18;23.80;88.10
10468;DHT22;5281;48.878;9.394;2024-03-22T13:54:43;23.60;87.80
10468;DHT22;5281;48.878;9.394;2024-03-22T13:57:10;23.40;87.20
10468;DHT22;5281;48.878;9.394;2024-03-22T13:59:36;22.90;88.60
10468;DHT22;5281;48.878;9.394;2024-03-22T14:02:05;22.90;87.90
10468;DHT22;5281;48.878;9.394;2024-03-22T14:04:31;22.80;88.10
10468;DHT22;5281;48.878;9.394;2024-03-22T14:06:59;22.60;88.20
10468;DHT22;5281;48.878;9.394;2024-03-22T14:09:28;22.50;90.10
10468;DHT22;5281;48.878;9.394;2024-03-22T14:11:55;22.40;89.80
10468;DHT22;5281;48.878;9.394;2024-03-22T14:14:21;22.50;89.00
10468;DHT22;5281;48.878;9.394;2024-03-22T14:16:47;22.40;89.70
10468;DHT22;5281;48.878;9.394;2024-03-22T14:19:13;22.20;90.10
10468;DHT22;5281;48.878;9.394;2024-03-22T14:21:40;22.00;90.40
10468;DHT22;5281;48.878;9.394;2024-03-22T14:24:08;21.80;90.50
10468;DHT22;5281;48.878;9.394;2024-03-22T14:26:34;21.80;90.70
10468;DHT22;5281;48.878;9.394;2024-03-22T14:29:00;21.70;90.50
10468;DHT22;5281;48.878;9.394;2024-03-22T14:31:27;21.70;90.70
10468;DHT22;5281;48.878;9.394;2024-03-22T14:33:53;21.60;90.70
10468;DHT22;5281;48.878;9.394;2024-03-22T14:36:19;21.50;91.00
10468;DHT22;5281;48.878;9.394;2024-03-22T14:38:45;21.60;91.10
10468;DHT22;5281;48.878;9.394;2024-03-22T14:41:13;21.60;91.10
10468;DHT22;5281;48.878;9.394;2024-03-22T14:43:38;21.60;91.60
10468;DHT22;5281;48.878;9.394;2024-03-22T14:46:05;21.60;91.10
10468;DHT22;5281;48.878;9.394;2024-03-22T14:48:31;21.60;90.80
10468;DHT22;5281;48.878;9.394;2024-03-22T14:50:57;21.60;90.80
10468;DHT22;5281;48.878;9.394;2024-03-22T14:53:24;21.60;91.20
10468;DHT22;5281;48.878;9.394;2024-03-22T14:55:54;21.50;90.50
10468;DHT22;5281;48.878;9.394;2024-03-22T14:58:24;21.30;90.50
10468;DHT22;5281;48.878;9.394;2024-03-22T15:00:53;21.40;90.80
10468;DHT22;5281;48.878;9.394;2024-03-22T15:03:18;21.40;91.00
10468;DHT22;5281;48.878;9.394;2024-03-22T15:05:45;21.30;90.90
10468;DHT22;5281;48.878;9.394;2024-03-22T15:08:11;21.30;91.00
10468;DHT22;5281;48.878;9.394;2024-03-22T15:10:38;21.30;90.80
10468;DHT22;5281;48.878;9.394;2024-03-22T15:13:04;21.20;88.60
10468;DHT22;5281;48.878;9.394;2024-03-22T15:15:33;21.10;88.60
10468;DHT22;5281;48.878;9.394;2024-03-22T15:17:58;20.90;89.40
10468;DHT22;5281;48.878;9.394;2024-03-22T15:20:25;20.80;88.60
10468;DHT22;5281;48.878;9.394;2024-03-22T15:22:53;20.70;86.00
10468;DHT22;5281;48.878;9.394;2024-03-22T15:25:19;20.70;85.50
10468;DHT22;5281;48.878;9.394;2024-03-22T15:27:45;20.60;85.70
10468;DHT22;5281;48.878;9.394;2024-03-22T15:30:13;20.40;85.50
10468;DHT22;5281;48.878;9.394;2024-03-22T15:32:40;20.50;86.70
10468;DHT22;5281;48.878;9.394;2024-03-22T15:35:07;20.40;86.90
10468;DHT22;5281;48.878;9.394;2024-03-22T15:37:34;20.40;86.40
10468;DHT22;5281;48.878;9.394;2024-03-22T15:40:01;20.30;86.80
10468;DHT22;5281;48.878;9.394;2024-03-22T15:42:27;20.20;86.80
10468;DHT22;5281;48.878;9.394;2024-03-22T15:44:54;20.00;86.20
10468;DHT22;5281;48.878;9.394;2024-03-22T15:47:20;19.90;86.10
10468;DHT22;5281;48.878;9.394;2024-03-22T15:49:48;19.90;85.20